Terminal Aerodrome Forecast
Issued by NWS New Orleans/Baton Rouge, LA

Home | Current Version | Previous Version | Text Only | Print | Product List | Glossary On
Versions: 1 2 3 4 5 6 7 8 9 10 11 12 13
000
FTUS44 KLIX 292320
TAFNEW
TAF
KNEW 292320Z 3000/3024 21012G21KT P6SM SCT030 SCT250
     FM300100 19007KT P6SM FEW080 SCT250
     FM301200 25006KT P6SM SCT250
     FM301800 29006KT P6SM FEW035 SCT250=

USA.gov is the U.S. government's official web portal to all federal, state and local government web resources and services.